createdAt,value
2022-11-27T00:00:41.316Z,17.23
2022-11-27T00:02:46.964Z,17.77
2022-11-27T00:04:51.275Z,16.98
2022-11-27T00:06:55.445Z,17.25
2022-11-27T00:09:00.794Z,18.25
2022-11-27T00:11:09.203Z,16.73
2022-11-27T00:13:13.488Z,17.35
2022-11-27T00:15:18.800Z,16.63
2022-11-27T00:17:23.148Z,17.02
2022-11-27T00:19:29.327Z,17.20
2022-11-27T00:21:36.738Z,16.40
2022-11-27T00:23:40.922Z,17.25
2022-11-27T00:25:51.711Z,16.67
2022-11-27T00:27:55.832Z,15.93
2022-11-27T00:30:00.121Z,16.25
2022-11-27T00:32:06.575Z,15.27
2022-11-27T00:34:11.950Z,15.60
2022-11-27T00:36:18.026Z,16.77
2022-11-27T00:38:22.737Z,16.55
2022-11-27T00:40:27.018Z,15.82
2022-11-27T00:42:31.235Z,15.45
2022-11-27T00:44:35.455Z,17.05
2022-11-27T00:46:41.050Z,17.15
2022-11-27T00:48:46.031Z,16.42
2022-11-27T00:50:50.277Z,15.77
2022-11-27T00:52:55.832Z,16.35
2022-11-27T00:55:00.185Z,17.90
2022-11-27T00:57:05.471Z,14.70
2022-11-27T00:59:11.226Z,17.30
2022-11-27T01:01:18.724Z,15.93
2022-11-27T01:03:22.982Z,15.27
2022-11-27T01:05:27.112Z,15.90
2022-11-27T01:07:31.275Z,15.10
2022-11-27T01:09:36.815Z,15.27
2022-11-27T01:11:41.888Z,15.20
2022-11-27T01:13:46.502Z,14.90
2022-11-27T01:16:02.636Z,16.00
2022-11-27T01:18:07.109Z,14.77
2022-11-27T01:20:12.214Z,15.68
2022-11-27T01:22:16.309Z,15.25
2022-11-27T01:24:20.572Z,15.73
2022-11-27T01:26:26.498Z,16.10
2022-11-27T01:28:31.059Z,17.65
2022-11-27T01:30:35.255Z,15.43
2022-11-27T01:32:39.368Z,15.57
2022-11-27T01:34:43.694Z,15.27
2022-11-27T01:36:47.890Z,14.75
2022-11-27T01:38:52.929Z,14.82
2022-11-27T01:41:00.833Z,15.10
2022-11-27T01:43:12.708Z,15.15
2022-11-27T01:45:19.209Z,14.50
2022-11-27T01:47:34.134Z,13.80
2022-11-27T01:49:41.267Z,14.40
2022-11-27T01:51:49.237Z,13.25
2022-11-27T01:53:54.766Z,14.20
2022-11-27T01:56:05.564Z,13.82
2022-11-27T01:58:13.225Z,13.02
2022-11-27T02:00:19.260Z,13.70
2022-11-27T02:02:23.399Z,12.90
2022-11-27T02:04:27.680Z,13.43
2022-11-27T02:06:32.846Z,12.77
2022-11-27T02:08:36.962Z,13.18
2022-11-27T02:10:49.467Z,14.23
2022-11-27T02:13:00.762Z,12.75
2022-11-27T02:15:14.346Z,12.82
2022-11-27T02:17:23.716Z,13.13
2022-11-27T02:19:43.650Z,13.45
2022-11-27T02:21:55.730Z,14.45
2022-11-27T02:24:33.897Z,13.00
2022-11-27T02:27:18.004Z,13.50
2022-11-27T02:29:25.641Z,13.52
2022-11-27T02:31:38.677Z,13.95
2022-11-27T02:33:47.531Z,14.10
2022-11-27T02:35:56.236Z,13.23
2022-11-27T02:38:04.200Z,13.80
2022-11-27T02:40:13.793Z,13.85
2022-11-27T02:42:21.628Z,15.05
2022-11-27T02:44:29.030Z,13.63
2022-11-27T02:46:34.172Z,13.75
2022-11-27T02:48:42.051Z,13.70
2022-11-27T02:50:47.666Z,13.48
2022-11-27T02:52:57.744Z,13.50
2022-11-27T02:55:06.380Z,14.43
2022-11-27T02:57:12.111Z,14.50
2022-11-27T02:59:17.212Z,13.50
2022-11-27T03:01:24.260Z,14.70
2022-11-27T03:03:33.794Z,14.38
2022-11-27T03:05:42.076Z,13.98
2022-11-27T03:07:52.595Z,14.75
2022-11-27T03:10:02.330Z,13.63
2022-11-27T03:12:08.743Z,13.60
2022-11-27T03:14:14.404Z,14.07
2022-11-27T03:16:28.100Z,13.57
2022-11-27T03:18:39.913Z,12.32
2022-11-27T03:20:48.003Z,13.13
2022-11-27T03:22:53.629Z,13.90
2022-11-27T03:24:57.738Z,11.73
2022-11-27T03:27:02.255Z,12.05
2022-11-27T03:29:10.492Z,11.82
2022-11-27T03:31:15.313Z,12.40
2022-11-27T03:33:21.042Z,12.38
2022-11-27T03:35:27.455Z,13.38
2022-11-27T03:37:31.637Z,13.27
2022-11-27T03:39:36.212Z,13.27
2022-11-27T03:41:46.804Z,12.63
2022-11-27T03:44:00.972Z,13.65
2022-11-27T03:46:12.352Z,14.60
2022-11-27T03:48:26.006Z,12.35
2022-11-27T03:50:36.921Z,14.02
2022-11-27T03:52:46.234Z,14.57
2022-11-27T03:54:56.717Z,13.63
2022-11-27T03:57:14.575Z,12.23
2022-11-27T03:59:24.285Z,12.60
2022-11-27T04:01:29.801Z,13.20
2022-11-27T04:03:36.151Z,14.68
2022-11-27T04:05:40.716Z,13.65
2022-11-27T04:07:44.930Z,14.40
2022-11-27T04:09:49.107Z,14.40
2022-11-27T04:11:53.111Z,13.60
2022-11-27T04:13:57.761Z,14.63
2022-11-27T04:16:02.828Z,14.52
2022-11-27T04:18:07.092Z,14.65
2022-11-27T04:20:15.397Z,14.27
2022-11-27T04:22:20.119Z,13.98
2022-11-27T04:24:24.465Z,13.63
2022-11-27T04:26:28.539Z,14.38
2022-11-27T04:28:32.694Z,13.65
2022-11-27T04:30:37.047Z,13.80
2022-11-27T04:32:41.802Z,12.35
2022-11-27T04:34:46.021Z,12.90
2022-11-27T04:36:51.538Z,12.15
2022-11-27T04:38:57.092Z,13.80
2022-11-27T04:41:01.420Z,12.90
2022-11-27T04:43:05.523Z,14.30
2022-11-27T04:45:11.595Z,18.27
2022-11-27T04:47:15.792Z,18.88
2022-11-27T04:49:19.893Z,18.75
2022-11-27T04:51:24.263Z,18.52
2022-11-27T04:53:29.842Z,30.98
2022-11-27T04:55:34.040Z,37.90
2022-11-27T04:57:38.327Z,26.23
2022-11-27T04:59:42.586Z,18.40
2022-11-27T05:01:46.998Z,19.67
2022-11-27T05:03:51.402Z,19.25
2022-11-27T05:05:57.516Z,18.02
2022-11-27T05:08:01.691Z,16.15
2022-11-27T05:10:08.651Z,15.45
2022-11-27T05:12:12.859Z,16.27
2022-11-27T05:14:18.141Z,16.85
2022-11-27T05:16:22.591Z,17.35
2022-11-27T05:18:27.101Z,15.38
2022-11-27T05:20:31.356Z,15.27
2022-11-27T05:22:35.777Z,15.38
2022-11-27T05:24:40.720Z,15.98
2022-11-27T05:26:48.055Z,15.60
2022-11-27T05:28:53.504Z,15.80
2022-11-27T05:30:57.815Z,17.95
2022-11-27T05:33:02.144Z,16.55
2022-11-27T05:35:06.991Z,15.98
2022-11-27T05:37:17.915Z,17.30
2022-11-27T05:39:23.942Z,16.75
2022-11-27T05:41:28.897Z,15.68
2022-11-27T05:43:34.900Z,15.57
2022-11-27T05:45:39.838Z,16.05
2022-11-27T05:47:45.308Z,14.93
2022-11-27T05:49:49.421Z,13.38
2022-11-27T05:51:53.763Z,13.35
2022-11-27T05:53:57.909Z,13.90
2022-11-27T05:56:03.772Z,13.35
2022-11-27T05:58:07.935Z,13.73
2022-11-27T06:00:16.400Z,14.15
2022-11-27T06:02:31.166Z,13.75
2022-11-27T06:04:35.779Z,13.50
2022-11-27T06:06:39.930Z,14.20
2022-11-27T06:08:48.014Z,13.68
2022-11-27T06:10:52.214Z,12.73
2022-11-27T06:12:57.168Z,13.82
2022-11-27T06:15:01.302Z,14.15
2022-11-27T06:17:08.529Z,13.98
2022-11-27T06:19:12.708Z,14.65
2022-11-27T06:21:16.970Z,14.60
2022-11-27T06:23:22.419Z,14.38
2022-11-27T06:25:27.449Z,14.30
2022-11-27T06:27:34.405Z,14.38
2022-11-27T06:29:38.774Z,14.55
2022-11-27T06:31:43.229Z,15.48
2022-11-27T06:33:49.818Z,16.42
2022-11-27T06:35:56.941Z,16.13
2022-11-27T06:38:01.009Z,16.67
2022-11-27T06:40:06.436Z,15.90
2022-11-27T06:42:10.951Z,15.30
2022-11-27T06:44:15.213Z,14.80
2022-11-27T06:46:21.358Z,15.35
2022-11-27T06:48:25.758Z,14.05
2022-11-27T06:50:31.304Z,14.52
2022-11-27T06:52:40.139Z,12.98
2022-11-27T06:54:44.775Z,13.48
2022-11-27T06:56:51.344Z,14.23
2022-11-27T06:58:57.687Z,12.98
2022-11-27T07:01:04.963Z,13.40
2022-11-27T07:03:09.050Z,12.88
2022-11-27T07:05:13.163Z,13.95
2022-11-27T07:07:18.734Z,13.45
2022-11-27T07:09:23.052Z,14.25
2022-11-27T07:11:30.174Z,12.70
2022-11-27T07:13:36.820Z,11.70
2022-11-27T07:15:41.021Z,13.48
2022-11-27T07:17:46.537Z,13.48
2022-11-27T07:19:50.659Z,11.95
2022-11-27T07:21:54.758Z,10.82
2022-11-27T07:24:00.527Z,10.57
2022-11-27T07:26:07.626Z,10.98
2022-11-27T07:28:16.004Z,9.25
2022-11-27T07:30:22.979Z,10.27
2022-11-27T07:32:27.117Z,10.75
2022-11-27T07:34:31.222Z,9.98
2022-11-27T07:36:35.404Z,11.05
2022-11-27T07:38:39.499Z,10.55
2022-11-27T07:40:45.049Z,11.27
2022-11-27T07:42:49.291Z,10.82
2022-11-27T07:44:54.636Z,10.77
2022-11-27T07:46:58.713Z,10.77
2022-11-27T07:49:03.945Z,9.75
2022-11-27T07:51:08.710Z,10.38
2022-11-27T07:53:12.816Z,9.27
2022-11-27T07:55:17.121Z,9.20
2022-11-27T07:57:23.314Z,9.00
2022-11-27T07:59:27.798Z,9.48
2022-11-27T08:01:32.103Z,9.13
2022-11-27T08:03:36.428Z,9.13
2022-11-27T08:05:40.615Z,9.55
2022-11-27T08:07:44.749Z,9.73
2022-11-27T08:09:48.962Z,9.82
2022-11-27T08:11:53.457Z,9.75
2022-11-27T08:14:00.959Z,10.05
2022-11-27T08:16:05.133Z,10.82
2022-11-27T08:18:09.299Z,9.88
2022-11-27T08:20:13.709Z,11.07
2022-11-27T08:22:19.684Z,11.25
2022-11-27T08:24:24.090Z,11.55
2022-11-27T08:26:28.991Z,11.45
2022-11-27T08:28:34.259Z,10.85
2022-11-27T08:30:39.970Z,10.73
2022-11-27T08:32:45.282Z,10.88
2022-11-27T08:34:49.501Z,11.13
2022-11-27T08:36:53.618Z,11.43
2022-11-27T08:38:58.439Z,12.73
2022-11-27T08:41:04.208Z,12.63
2022-11-27T08:43:08.389Z,13.02
2022-11-27T08:45:12.797Z,14.05
2022-11-27T08:47:20.031Z,14.43
2022-11-27T08:49:25.411Z,16.33
2022-11-27T08:51:29.997Z,16.67
2022-11-27T08:53:34.111Z,17.95
2022-11-27T08:55:38.436Z,18.38
2022-11-27T08:57:42.579Z,18.88
2022-11-27T08:59:47.002Z,18.60
2022-11-27T09:01:51.162Z,21.02
2022-11-27T09:03:57.028Z,21.55
2022-11-27T09:06:01.338Z,21.42
2022-11-27T09:08:05.556Z,19.48
2022-11-27T09:10:13.381Z,19.77
2022-11-27T09:12:18.046Z,19.55
2022-11-27T09:14:22.565Z,19.05
2022-11-27T09:16:26.727Z,18.42
2022-11-27T09:18:31.258Z,17.00
2022-11-27T09:20:36.811Z,16.70
2022-11-27T09:22:41.302Z,15.60
2022-11-27T09:24:45.694Z,17.08
2022-11-27T09:26:50.233Z,17.65
2022-11-27T09:28:55.369Z,18.10
2022-11-27T09:31:00.919Z,17.75
2022-11-27T09:33:05.446Z,17.33
2022-11-27T09:35:10.229Z,18.10
2022-11-27T09:37:16.452Z,18.10
2022-11-27T09:39:21.622Z,17.48
2022-11-27T09:41:41.924Z,17.83
2022-11-27T09:43:51.530Z,16.83
2022-11-27T09:46:01.506Z,16.95
2022-11-27T09:50:16.521Z,16.65
2022-11-27T09:52:28.131Z,15.88
2022-11-27T09:54:38.736Z,15.75
2022-11-27T09:56:48.279Z,16.45
2022-11-27T09:58:59.342Z,17.08
2022-11-27T10:01:10.665Z,16.10
2022-11-27T10:03:17.024Z,14.85
2022-11-27T10:05:24.189Z,15.38
2022-11-27T10:07:43.389Z,15.15
2022-11-27T10:10:01.326Z,14.85
2022-11-27T10:12:14.886Z,15.80
2022-11-27T10:14:35.403Z,15.82
2022-11-27T10:16:45.045Z,14.88
2022-11-27T10:18:54.871Z,14.68
2022-11-27T10:21:04.166Z,15.10
2022-11-27T10:23:19.898Z,13.43
2022-11-27T10:25:30.981Z,13.75
2022-11-27T10:27:41.909Z,13.25
2022-11-27T10:29:53.358Z,13.65
2022-11-27T10:32:02.722Z,12.65
2022-11-27T10:34:27.353Z,13.00
2022-11-27T10:36:37.076Z,14.48
2022-11-27T10:38:44.890Z,12.90
2022-11-27T10:40:58.997Z,14.32
2022-11-27T10:43:11.747Z,13.68
2022-11-27T10:45:22.889Z,12.93
2022-11-27T10:47:33.443Z,13.43
2022-11-27T10:50:10.476Z,13.02
2022-11-27T10:53:01.788Z,12.98
2022-11-27T10:55:22.241Z,13.60
2022-11-27T10:57:47.734Z,12.10
2022-11-27T11:00:05.155Z,12.98
2022-11-27T11:02:28.380Z,12.52
2022-11-27T11:04:54.493Z,12.75
2022-11-27T11:06:59.444Z,12.68
2022-11-27T11:09:06.433Z,12.85
2022-11-27T11:11:15.016Z,11.88
2022-11-27T11:13:22.506Z,11.50
2022-11-27T11:15:26.809Z,11.57
2022-11-27T11:17:35.007Z,11.07
2022-11-27T11:19:39.498Z,10.95
2022-11-27T11:21:45.217Z,10.43
2022-11-27T11:23:58.912Z,11.35
2022-11-27T11:26:08.732Z,11.30
2022-11-27T11:28:19.143Z,11.85
2022-11-27T11:30:25.357Z,11.43
2022-11-27T11:32:32.087Z,14.45
2022-11-27T11:34:37.870Z,11.15
2022-11-27T11:36:43.636Z,10.30
2022-11-27T11:38:49.803Z,10.82
2022-11-27T11:41:04.102Z,10.68
2022-11-27T11:43:26.913Z,10.70
2022-11-27T11:45:33.401Z,11.27
2022-11-27T11:47:46.508Z,11.85
2022-11-27T11:49:52.090Z,12.10
2022-11-27T11:52:13.126Z,11.43
2022-11-27T11:54:36.595Z,12.82
2022-11-27T11:56:46.903Z,12.65
2022-11-27T11:58:58.706Z,11.85
2022-11-27T12:01:28.246Z,11.07
2022-11-27T12:03:49.330Z,12.18
2022-11-27T12:06:09.811Z,13.10
2022-11-27T12:08:33.134Z,12.98
2022-11-27T12:10:47.087Z,12.05
2022-11-27T12:13:02.657Z,12.48
2022-11-27T12:15:17.801Z,12.55
2022-11-27T12:17:40.678Z,12.20
2022-11-27T12:20:11.619Z,13.05
2022-11-27T12:22:24.827Z,11.75
2022-11-27T12:24:40.104Z,13.23
2022-11-27T12:26:59.911Z,13.40
2022-11-27T12:29:18.420Z,11.82
2022-11-27T12:31:36.004Z,11.93
2022-11-27T12:33:55.872Z,11.15
2022-11-27T12:36:08.931Z,10.85
2022-11-27T12:38:39.787Z,10.77
2022-11-27T12:41:04.039Z,10.35
2022-11-27T12:43:18.023Z,10.27
2022-11-27T12:45:27.007Z,10.52
2022-11-27T12:47:40.477Z,10.82
2022-11-27T12:49:49.188Z,10.98
2022-11-27T12:51:56.422Z,10.63
2022-11-27T12:54:05.105Z,10.70
2022-11-27T12:56:16.076Z,10.15
2022-11-27T12:58:27.085Z,10.00
2022-11-27T13:00:33.253Z,11.10
2022-11-27T13:02:43.535Z,10.57
2022-11-27T13:04:53.135Z,9.65
2022-11-27T13:07:02.700Z,11.05
2022-11-27T13:09:14.910Z,10.75
2022-11-27T13:11:24.954Z,14.48
2022-11-27T13:13:35.969Z,15.00
2022-11-27T13:15:44.297Z,12.60
2022-11-27T13:17:56.747Z,10.73
2022-11-27T13:20:02.357Z,10.48
2022-11-27T13:22:12.258Z,10.65
2022-11-27T13:24:17.094Z,11.15
2022-11-27T13:26:26.660Z,9.13
2022-11-27T13:28:38.552Z,11.02
2022-11-27T13:30:43.503Z,10.50
2022-11-27T13:32:53.647Z,9.88
2022-11-27T13:37:06.159Z,10.77
2022-11-27T13:39:23.896Z,10.80
2022-11-27T13:41:34.749Z,11.07
2022-11-27T13:43:44.502Z,12.07
2022-11-27T13:45:49.294Z,12.63
2022-11-27T13:47:56.371Z,12.02
2022-11-27T13:50:03.483Z,12.90
2022-11-27T13:52:14.888Z,14.38
2022-11-27T13:54:27.514Z,23.20
2022-11-27T13:56:32.505Z,23.85
2022-11-27T13:58:39.071Z,24.77
2022-11-27T14:00:45.801Z,26.27
2022-11-27T14:02:52.426Z,24.98
2022-11-27T14:04:58.024Z,27.08
2022-11-27T14:07:06.911Z,26.00
2022-11-27T14:09:11.102Z,26.15
2022-11-27T14:11:15.380Z,26.80
2022-11-27T14:13:22.413Z,24.88
2022-11-27T14:15:32.660Z,25.85
2022-11-27T14:17:40.542Z,25.88
2022-11-27T14:19:46.692Z,29.27
2022-11-27T14:21:52.324Z,29.15
2022-11-27T14:23:56.432Z,29.25
2022-11-27T14:26:08.585Z,29.25
2022-11-27T14:28:21.642Z,28.23
2022-11-27T14:30:32.555Z,27.40
2022-11-27T14:32:37.271Z,27.67
2022-11-27T14:34:41.887Z,27.38
2022-11-27T14:36:46.909Z,27.38
2022-11-27T14:38:52.573Z,26.48
2022-11-27T14:41:09.057Z,26.17
2022-11-27T14:43:17.383Z,27.00
2022-11-27T14:45:23.997Z,27.70
2022-11-27T14:47:28.463Z,27.75
2022-11-27T14:49:34.206Z,27.17
2022-11-27T14:51:38.647Z,27.73
2022-11-27T14:53:43.443Z,27.10
2022-11-27T14:55:49.829Z,26.80
2022-11-27T14:57:53.993Z,28.05
2022-11-27T15:00:17.431Z,26.90
2022-11-27T15:02:27.616Z,28.55
2022-11-27T15:04:36.275Z,27.30
2022-11-27T15:06:44.956Z,28.25
2022-11-27T15:09:09.020Z,26.95
2022-11-27T15:11:35.765Z,27.80
2022-11-27T15:13:46.220Z,29.08
2022-11-27T15:15:56.970Z,28.80
2022-11-27T15:18:04.577Z,30.35
2022-11-27T15:20:16.776Z,28.77
2022-11-27T15:22:21.382Z,32.33
2022-11-27T15:24:36.333Z,27.77
2022-11-27T15:26:45.041Z,27.58
2022-11-27T15:28:53.945Z,29.67
2022-11-27T15:30:59.615Z,30.23
2022-11-27T15:33:04.018Z,27.88
2022-11-27T15:35:15.118Z,29.90
2022-11-27T15:37:25.994Z,27.95
2022-11-27T15:39:39.160Z,30.35
2022-11-27T15:41:54.968Z,29.45
2022-11-27T15:43:59.273Z,27.13
2022-11-27T15:46:08.573Z,27.85
2022-11-27T15:48:16.876Z,29.13
2022-11-27T15:50:21.318Z,29.10
2022-11-27T15:52:27.025Z,30.17
2022-11-27T15:54:31.251Z,30.73
2022-11-27T15:56:36.505Z,32.00
2022-11-27T15:58:42.984Z,29.98
2022-11-27T16:00:47.600Z,29.30
2022-11-27T16:02:52.539Z,28.13
2022-11-27T16:04:56.946Z,30.63
2022-11-27T16:07:01.144Z,28.77
2022-11-27T16:09:06.339Z,28.98
2022-11-27T16:11:14.763Z,29.05
2022-11-27T16:13:19.055Z,28.08
2022-11-27T16:15:28.835Z,29.58
2022-11-27T16:17:36.359Z,29.63
2022-11-27T16:19:40.746Z,31.27
2022-11-27T16:21:46.375Z,31.92
2022-11-27T16:23:50.617Z,30.02
2022-11-27T16:25:55.036Z,28.73
2022-11-27T16:28:02.721Z,29.42
2022-11-27T16:30:09.009Z,31.48
2022-11-27T16:32:14.746Z,29.45
2022-11-27T16:34:19.336Z,30.23
2022-11-27T16:36:25.369Z,30.98
2022-11-27T16:38:29.843Z,29.30
2022-11-27T16:40:34.951Z,30.73
2022-11-27T16:42:40.012Z,30.98
2022-11-27T16:44:44.652Z,29.83
2022-11-27T16:46:48.863Z,31.77
2022-11-27T16:48:56.045Z,30.83
2022-11-27T16:51:04.571Z,28.98
2022-11-27T16:53:09.878Z,30.88
2022-11-27T16:55:15.113Z,29.98
2022-11-27T16:57:22.104Z,29.15
2022-11-27T16:59:26.246Z,29.67
2022-11-27T17:01:32.847Z,30.55
2022-11-27T17:03:37.701Z,29.25
2022-11-27T17:05:47.522Z,29.30
2022-11-27T17:07:54.361Z,28.48
2022-11-27T17:09:59.790Z,29.98
2022-11-27T17:12:03.995Z,29.25
2022-11-27T17:14:10.732Z,27.70
2022-11-27T17:16:15.007Z,29.65
2022-11-27T17:18:20.439Z,28.50
2022-11-27T17:20:24.776Z,29.05
2022-11-27T17:22:31.093Z,28.92
2022-11-27T17:24:36.770Z,30.10
2022-11-27T17:26:43.668Z,30.83
2022-11-27T17:28:48.248Z,30.65
2022-11-27T17:30:52.918Z,30.40
2022-11-27T17:32:58.186Z,32.25
2022-11-27T17:35:02.764Z,35.13
2022-11-27T17:37:07.434Z,34.95
2022-11-27T17:39:14.584Z,34.45
2022-11-27T17:41:19.739Z,33.30
2022-11-27T17:43:25.647Z,35.45
2022-11-27T17:45:29.754Z,34.22
2022-11-27T17:47:35.239Z,35.53
2022-11-27T17:49:40.465Z,39.80
2022-11-27T17:51:46.123Z,41.50
2022-11-27T17:53:51.784Z,39.15
2022-11-27T17:55:57.527Z,41.83
2022-11-27T17:58:01.745Z,38.75
2022-11-27T18:00:07.386Z,37.97
2022-11-27T18:02:18.473Z,43.20
2022-11-27T18:04:23.225Z,42.22
2022-11-27T18:06:28.267Z,41.40
2022-11-27T18:08:36.419Z,41.63
2022-11-27T18:10:41.691Z,43.30
2022-11-27T18:12:47.818Z,45.05
2022-11-27T18:14:55.432Z,41.47
2022-11-27T18:17:07.157Z,42.20
2022-11-27T18:19:12.649Z,45.08
2022-11-27T18:21:18.906Z,44.95
2022-11-27T18:23:23.258Z,52.20
2022-11-27T18:25:27.433Z,50.65
2022-11-27T18:27:32.786Z,55.05
2022-11-27T18:29:40.066Z,57.33
2022-11-27T18:31:44.410Z,59.45
2022-11-27T18:33:49.239Z,59.53
2022-11-27T18:35:54.635Z,65.38
2022-11-27T18:37:58.749Z,65.97
2022-11-27T18:40:03.021Z,72.43
2022-11-27T18:42:10.496Z,70.68
2022-11-27T18:44:15.654Z,75.45
2022-11-27T18:46:22.025Z,74.85
2022-11-27T18:48:26.649Z,71.72
2022-11-27T18:50:30.729Z,73.43
2022-11-27T18:52:35.017Z,72.63
2022-11-27T18:54:39.531Z,69.40
2022-11-27T18:56:44.795Z,70.00
2022-11-27T18:58:50.809Z,70.10
2022-11-27T19:00:57.582Z,70.85
2022-11-27T19:03:03.740Z,71.68
2022-11-27T19:05:09.005Z,85.93
2022-11-27T19:07:13.263Z,82.47
2022-11-27T19:09:18.105Z,56.38
2022-11-27T19:11:24.081Z,61.00
2022-11-27T19:13:28.445Z,59.60
2022-11-27T19:15:32.977Z,59.92
2022-11-27T19:17:37.952Z,59.78
2022-11-27T19:19:59.751Z,63.08
2022-11-27T19:22:04.065Z,59.53
2022-11-27T19:24:12.359Z,59.47
2022-11-27T19:26:19.235Z,57.30
2022-11-27T19:28:23.751Z,61.42
2022-11-27T19:30:32.757Z,57.22
2022-11-27T19:32:38.433Z,58.42
2022-11-27T19:34:44.865Z,55.83
2022-11-27T19:36:49.711Z,59.08
2022-11-27T19:38:56.683Z,56.63
2022-11-27T19:41:01.102Z,53.42
2022-11-27T19:43:05.708Z,53.80
2022-11-27T19:45:11.121Z,53.72
2022-11-27T19:47:15.523Z,55.53
2022-11-27T19:49:21.507Z,52.92
2022-11-27T19:51:28.582Z,54.58
2022-11-27T19:53:33.508Z,53.35
2022-11-27T19:55:37.997Z,52.55
2022-11-27T19:57:42.324Z,51.53
2022-11-27T19:59:46.853Z,53.88
2022-11-27T20:01:51.135Z,52.20
2022-11-27T20:04:02.142Z,51.22
2022-11-27T20:06:08.588Z,57.83
2022-11-27T20:08:14.382Z,55.85
2022-11-27T20:10:18.957Z,53.75
2022-11-27T20:12:23.172Z,51.30
2022-11-27T20:14:28.246Z,50.60
2022-11-27T20:16:34.184Z,50.60
2022-11-27T20:18:39.423Z,55.03
2022-11-27T20:20:44.244Z,50.08
2022-11-27T20:22:50.392Z,54.88
2022-11-27T20:25:18.523Z,56.47
2022-11-27T20:27:21.977Z,53.90
2022-11-27T20:29:26.366Z,54.00
2022-11-27T20:31:32.898Z,75.45
2022-11-27T20:33:37.229Z,63.25
2022-11-27T20:35:43.212Z,53.95
2022-11-27T20:37:47.509Z,53.65
2022-11-27T20:39:51.841Z,64.18
2022-11-27T20:41:57.958Z,51.72
2022-11-27T20:44:04.827Z,64.15
2022-11-27T20:46:10.128Z,54.85
2022-11-27T20:48:15.041Z,53.67
2022-11-27T20:50:19.753Z,49.88
2022-11-27T20:52:24.215Z,47.90
2022-11-27T20:54:29.338Z,45.67
2022-11-27T20:56:34.018Z,46.78
2022-11-27T20:58:43.047Z,45.75
2022-11-27T21:00:47.209Z,48.95
2022-11-27T21:02:51.346Z,51.00
2022-11-27T21:04:55.992Z,54.08
2022-11-27T21:07:00.200Z,51.63
2022-11-27T21:09:08.543Z,52.05
2022-11-27T21:11:14.970Z,54.42
2022-11-27T21:13:20.351Z,55.80
2022-11-27T21:15:26.880Z,56.70
2022-11-27T21:17:31.208Z,54.67
2022-11-27T21:19:35.507Z,53.80
2022-11-27T21:21:39.670Z,54.58
2022-11-27T21:23:44.058Z,53.35
2022-11-27T21:25:48.597Z,54.80
2022-11-27T21:27:55.884Z,52.38
2022-11-27T21:30:00.175Z,51.15
2022-11-27T21:32:06.081Z,49.05
2022-11-27T21:34:12.691Z,48.85
2022-11-27T21:36:18.776Z,51.88
2022-11-27T21:38:24.083Z,49.63
2022-11-27T21:40:28.299Z,52.92
2022-11-27T21:42:33.129Z,53.50
2022-11-27T21:44:41.352Z,51.63
2022-11-27T21:46:45.992Z,50.22
2022-11-27T21:48:56.222Z,47.65
2022-11-27T21:51:02.278Z,47.28
2022-11-27T21:53:07.102Z,49.58
2022-11-27T21:55:12.315Z,47.17
2022-11-27T21:57:17.352Z,45.90
2022-11-27T21:59:21.546Z,42.65
2022-11-27T22:01:26.868Z,43.88
2022-11-27T22:03:31.120Z,44.72
2022-11-27T22:05:38.442Z,44.60
2022-11-27T22:07:42.857Z,44.10
2022-11-27T22:09:47.062Z,43.78
2022-11-27T22:11:53.382Z,42.47
2022-11-27T22:13:58.122Z,43.85
2022-11-27T22:16:03.135Z,45.95
2022-11-27T22:18:07.409Z,43.17
2022-11-27T22:20:12.500Z,44.20
2022-11-27T22:22:18.160Z,43.28
2022-11-27T22:24:22.266Z,45.53
2022-11-27T22:26:30.173Z,42.33
2022-11-27T22:28:36.208Z,42.47
2022-11-27T22:30:40.559Z,43.95
2022-11-27T22:32:45.482Z,46.95
2022-11-27T22:34:49.709Z,44.75
2022-11-27T22:36:56.940Z,44.17
2022-11-27T22:39:05.071Z,42.78
2022-11-27T22:41:10.532Z,38.95
2022-11-27T22:43:15.443Z,38.35
2022-11-27T22:45:19.926Z,37.35
2022-11-27T22:47:24.053Z,38.53
2022-11-27T22:49:28.766Z,39.83
2022-11-27T22:51:35.572Z,40.55
2022-11-27T22:53:40.269Z,40.35
2022-11-27T22:55:45.810Z,36.53
2022-11-27T22:57:50.046Z,37.08
2022-11-27T22:59:54.225Z,38.17
2022-11-27T23:01:58.417Z,38.05
2022-11-27T23:04:03.521Z,38.78
2022-11-27T23:06:11.997Z,36.90
2022-11-27T23:08:16.309Z,39.17
2022-11-27T23:10:20.781Z,38.65
2022-11-27T23:12:26.393Z,36.45
2022-11-27T23:14:30.724Z,38.78
2022-11-27T23:16:35.265Z,36.88
2022-11-27T23:18:40.107Z,35.83
2022-11-27T23:20:44.740Z,33.42
2022-11-27T23:22:50.083Z,35.90
2022-11-27T23:24:55.023Z,32.65
2022-11-27T23:26:59.294Z,37.17
2022-11-27T23:29:05.262Z,34.47
2022-11-27T23:31:31.407Z,34.03
2022-11-27T23:33:36.042Z,35.00
2022-11-27T23:35:40.153Z,34.20
2022-11-27T23:37:45.340Z,36.22
2022-11-27T23:39:49.518Z,32.70
2022-11-27T23:41:53.616Z,33.20
2022-11-27T23:43:58.104Z,32.53
2022-11-27T23:46:05.669Z,33.25
2022-11-27T23:48:09.864Z,30.88
2022-11-27T23:50:14.201Z,32.25
2022-11-27T23:52:18.874Z,33.17
2022-11-27T23:54:23.033Z,31.38
2022-11-27T23:56:29.660Z,30.83
2022-11-27T23:58:33.868Z,32.40
